Time;durP1;ratioP1;P1;durP2;ratioP2;P2;SDS_P1;SDS_P2;PMS_P1;PMS_P2;Temp;Humidity;BMP_temperature;BMP_pressure;BME280_temperature;BME280_humidity;BME280_pressure;Samples;Min_cycle;Max_cycle;Signal;HPM_P1;HPM_P2
2022/05/19 00:00:23;;;;;;;1.90;1.90;;;22.80;69.40;;;;;;5047369;28;43337;-69
2022/05/19 00:02:51;;;;;;;1.90;1.90;;;22.80;69.10;;;;;;5048978;28;44076;-71
2022/05/19 00:05:20;;;;;;;2.00;2.00;;;22.70;68.90;;;;;;5048333;28;44032;-72
2022/05/19 00:07:48;;;;;;;1.90;1.90;;;22.70;69.30;;;;;;5048254;28;43402;-71
2022/05/19 00:10:18;;;;;;;2.20;2.20;;;22.60;68.80;;;;;;5048220;28;43383;-71
2022/05/19 00:12:50;;;;;;;1.90;1.90;;;22.50;68.70;;;;;;5048900;28;44025;-70
2022/05/19 00:15:18;;;;;;;1.80;1.80;;;22.50;68.80;;;;;;5029762;28;45834;-70
2022/05/19 00:17:46;;;;;;;1.90;1.90;;;22.50;70.00;;;;;;5048150;28;44123;-70
2022/05/19 00:20:14;;;;;;;1.60;1.60;;;22.50;71.60;;;;;;5048397;28;43952;-70
2022/05/19 00:22:42;;;;;;;1.90;1.90;;;22.60;71.00;;;;;;5048742;28;43898;-70
2022/05/19 00:25:10;;;;;;;1.90;1.90;;;22.80;70.70;;;;;;5029792;28;45885;-70
2022/05/19 00:27:39;;;;;;;1.80;1.80;;;23.00;69.40;;;;;;5045964;28;45333;-72
2022/05/19 00:30:08;;;;;;;1.93;1.93;;;23.10;69.00;;;;;;5047991;28;43333;-71
2022/05/19 00:32:36;;;;;;;1.77;1.77;;;23.10;68.50;;;;;;5046595;28;44045;-71
2022/05/19 00:35:04;;;;;;;1.80;1.80;;;23.10;68.10;;;;;;5047170;28;43958;-71
2022/05/19 00:37:32;;;;;;;1.80;1.80;;;23.00;68.10;;;;;;5047717;28;43973;-71
2022/05/19 00:40:00;;;;;;;1.90;1.90;;;22.90;68.10;;;;;;5029839;28;43424;-70
2022/05/19 00:42:46;;;;;;;1.93;1.93;;;22.90;68.80;;;;;;5029512;28;43401;-71
2022/05/19 00:45:18;;;;;;;1.80;1.80;;;22.80;68.50;;;;;;5042045;28;43950;-70
2022/05/19 00:47:47;;;;;;;1.80;1.80;;;22.70;70.70;;;;;;5029019;28;43838;-71
2022/05/19 00:50:20;;;;;;;1.80;1.80;;;22.70;70.70;;;;;;5046194;28;44001;-70
2022/05/19 00:52:48;;;;;;;2.00;2.00;;;22.80;70.00;;;;;;5047857;28;43950;-70
2022/05/19 00:55:18;;;;;;;1.90;1.90;;;22.90;69.40;;;;;;5029106;28;45857;-70
2022/05/19 00:57:48;;;;;;;1.73;1.73;;;22.90;68.90;;;;;;5047227;28;44063;-70
2022/05/19 01:00:19;;;;;;;1.63;1.63;;;22.80;68.70;;;;;;5047812;28;43878;-70
2022/05/19 01:02:48;;;;;;;1.70;1.70;;;22.70;69.10;;;;;;5047850;28;43949;-70
2022/05/19 01:05:18;;;;;;;1.80;1.80;;;22.70;69.00;;;;;;5047067;28;43932;-70
2022/05/19 01:07:48;;;;;;;2.00;2.00;;;22.60;68.70;;;;;;5047236;28;44013;-70
2022/05/19 01:10:16;;;;;;;1.40;1.40;;;22.50;68.70;;;;;;5047164;28;43388;-70
2022/05/19 01:12:46;;;;;;;1.67;1.67;;;22.50;68.90;;;;;;5047635;28;43955;-71
2022/05/19 01:15:14;;;;;;;1.80;1.80;;;22.40;71.00;;;;;;5047178;28;44017;-71
2022/05/19 01:17:43;;;;;;;1.70;1.70;;;22.50;72.10;;;;;;5047166;28;44325;-70
2022/05/19 01:20:13;;;;;;;1.90;1.90;;;22.70;71.00;;;;;;5047588;28;44004;-71
2022/05/19 01:22:44;;;;;;;1.97;1.97;;;22.90;69.80;;;;;;5045648;28;44559;-70
2022/05/19 01:25:16;;;;;;;1.60;1.60;;;23.00;69.10;;;;;;5028904;28;46418;-70
2022/05/19 01:27:46;;;;;;;1.73;1.73;;;23.10;68.70;;;;;;5047067;28;43968;-70
2022/05/19 01:30:14;;;;;;;1.73;1.73;;;23.10;68.50;;;;;;5029166;28;44011;-71
2022/05/19 01:32:42;;;;;;;1.60;1.60;;;23.00;68.40;;;;;;5029259;28;43607;-71
2022/05/19 01:35:10;;;;;;;1.60;1.60;;;22.90;68.30;;;;;;5046688;28;45095;-71
2022/05/19 01:37:38;;;;;;;1.70;1.70;;;22.80;69.00;;;;;;5028507;28;45238;-71
2022/05/19 01:40:22;;;;;;;1.60;1.60;;;22.70;68.50;;;;;;5028728;28;44095;-71
2022/05/19 01:42:56;;;;;;;1.70;1.70;;;22.60;70.20;;;;;;5039842;28;43965;-71
2022/05/19 01:45:46;;;;;;;1.70;1.70;;;22.60;70.90;;;;;;5045177;28;46448;-72
2022/05/19 01:48:17;;;;;;;1.60;1.60;;;22.80;70.70;;;;;;5046729;28;44281;-71
2022/05/19 01:50:49;;;;;;;1.57;1.57;;;22.90;69.30;;;;;;5047085;28;44037;-71
2022/05/19 01:53:21;;;;;;;1.80;1.80;;;23.00;69.00;;;;;;5047170;28;43482;-70
2022/05/19 01:55:52;;;;;;;1.60;1.60;;;23.00;68.60;;;;;;5046643;28;43966;-71
2022/05/19 01:58:22;;;;;;;1.70;1.70;;;23.00;68.50;;;;;;5040186;28;44049;-71
2022/05/19 02:00:52;;;;;;;1.70;1.70;;;22.90;68.40;;;;;;5040937;28;44256;-70
2022/05/19 02:03:23;;;;;;;1.70;1.70;;;22.80;69.00;;;;;;5046845;28;44017;-70
2022/05/19 02:05:54;;;;;;;1.57;1.57;;;22.70;68.60;;;;;;5046681;28;45111;-70
2022/05/19 02:08:24;;;;;;;1.77;1.77;;;22.60;68.60;;;;;;5028243;28;44894;-70
2022/05/19 02:10:55;;;;;;;1.73;1.70;;;22.60;70.70;;;;;;5046521;28;44142;-70
2022/05/19 02:13:24;;;;;;;1.40;1.40;;;22.60;71.20;;;;;;5028425;28;44019;-71
2022/05/19 02:15:53;;;;;;;1.57;1.57;;;22.70;71.00;;;;;;5046501;28;44108;-70
2022/05/19 02:18:23;;;;;;;1.50;1.50;;;22.80;69.80;;;;;;5027936;28;44066;-71
2022/05/19 02:20:51;;;;;;;1.50;1.50;;;22.80;69.60;;;;;;5044279;28;44071;-71
2022/05/19 02:23:19;;;;;;;1.60;1.60;;;22.80;69.10;;;;;;5048608;28;44094;-71
2022/05/19 02:25:47;;;;;;;1.60;1.60;;;22.70;69.10;;;;;;5049861;28;43787;-70
2022/05/19 02:28:18;;;;;;;1.70;1.70;;;22.60;69.20;;;;;;5049958;28;43905;-71
2022/05/19 02:30:47;;;;;;;1.70;1.70;;;22.60;68.90;;;;;;5048101;28;43989;-70
2022/05/19 02:33:15;;;;;;;1.40;1.40;;;22.50;68.80;;;;;;5031889;28;43941;-71
2022/05/19 02:35:44;;;;;;;1.70;1.70;;;22.50;69.00;;;;;;5049852;28;44098;-70
2022/05/19 02:38:12;;;;;;;1.40;1.40;;;22.40;70.30;;;;;;5031401;28;44957;-71
2022/05/19 02:40:40;;;;;;;1.40;1.40;;;22.50;71.70;;;;;;5049619;28;43957;-71
2022/05/19 02:43:08;;;;;;;1.50;1.50;;;22.60;71.10;;;;;;5049746;28;43989;-71
2022/05/19 02:45:36;;;;;;;1.70;1.70;;;22.80;70.30;;;;;;5049224;28;43961;-71
2022/05/19 02:48:07;;;;;;;1.53;1.53;;;23.00;69.60;;;;;;5049474;28;43363;-70
2022/05/19 02:50:34;;;;;;;1.60;1.60;;;23.10;69.10;;;;;;5049589;28;44041;-70
2022/05/19 02:53:03;;;;;;;1.60;1.60;;;23.10;68.40;;;;;;5049894;28;43958;-70
2022/05/19 02:55:31;;;;;;;1.50;1.50;;;23.10;68.20;;;;;;5049287;28;43926;-70
2022/05/19 02:58:00;;;;;;;1.57;1.57;;;23.00;68.20;;;;;;5049272;28;43911;-70
2022/05/19 03:00:30;;;;;;;1.40;1.40;;;22.90;68.30;;;;;;5049321;28;43994;-71
2022/05/19 03:02:58;;;;;;;1.90;1.90;;;22.80;68.70;;;;;;5049839;28;44014;-70
2022/05/19 03:05:31;;;;;;;1.60;1.60;;;22.70;68.40;;;;;;5049147;28;43608;-70
2022/05/19 03:08:05;;;;;;;1.60;1.60;;;22.60;70.50;;;;;;5048987;28;43994;-70
2022/05/19 03:10:33;;;;;;;1.40;1.40;;;22.60;70.90;;;;;;5049233;28;43409;-71
2022/05/19 03:13:03;;;;;;;1.57;1.57;;;22.70;70.80;;;;;;5049516;28;43991;-71
2022/05/19 03:15:31;;;;;;;1.73;1.73;;;22.80;69.70;;;;;;5048909;28;44679;-70
2022/05/19 03:17:59;;;;;;;1.60;1.60;;;22.80;69.50;;;;;;5048920;28;43424;-71
2022/05/19 03:20:30;;;;;;;1.60;1.60;;;22.80;68.90;;;;;;5049425;28;43905;-71
2022/05/19 03:22:57;;;;;;;1.40;1.40;;;22.70;68.90;;;;;;5021477;28;43931;-70
2022/05/19 03:25:25;;;;;;;1.60;1.60;;;22.70;69.20;;;;;;5042124;28;44104;-72
2022/05/19 03:27:53;;;;;;;2.00;1.90;;;22.60;68.70;;;;;;5048547;28;43899;-71
2022/05/19 03:30:21;;;;;;;1.50;1.50;;;22.50;68.70;;;;;;5048969;28;44005;-70
2022/05/19 03:32:49;;;;;;;1.50;1.50;;;22.50;68.90;;;;;;5024461;28;43910;-71
2022/05/19 03:35:17;;;;;;;1.50;1.50;;;22.40;69.90;;;;;;5041907;28;44026;-70
2022/05/19 03:37:46;;;;;;;1.40;1.40;;;22.40;71.50;;;;;;5042136;28;43818;-71
2022/05/19 03:40:16;;;;;;;1.50;1.50;;;22.60;71.20;;;;;;5042241;28;44104;-70
2022/05/19 03:42:44;;;;;;;1.47;1.47;;;22.80;70.30;;;;;;5042417;28;44073;-70
2022/05/19 03:45:12;;;;;;;1.60;1.50;;;22.90;69.70;;;;;;5047438;28;45673;-71
2022/05/19 03:47:40;;;;;;;2.10;1.90;;;23.10;69.00;;;;;;5048671;28;44008;-70
2022/05/19 03:50:08;;;;;;;2.00;1.90;;;23.20;68.50;;;;;;5047908;28;44183;-70
2022/05/19 03:52:39;;;;;;;1.80;1.80;;;23.10;68.10;;;;;;5049438;28;44031;-72
2022/05/19 03:55:09;;;;;;;4.53;2.83;;;23.00;68.10;;;;;;5048790;28;45257;-71
2022/05/19 03:57:37;;;;;;;2.47;2.27;;;23.00;68.20;;;;;;5048854;28;43882;-71
2022/05/19 04:00:06;;;;;;;3.43;2.97;;;22.80;68.80;;;;;;5030551;28;44033;-70
2022/05/19 04:02:39;;;;;;;5.17;2.97;;;22.70;68.20;;;;;;5046161;28;44380;-70
2022/05/19 04:05:08;;;;;;;6.57;3.83;;;22.70;70.80;;;;;;5030630;28;45939;-71
2022/05/19 04:07:37;;;;;;;6.63;3.50;;;22.70;70.80;;;;;;5048872;28;43957;-70
2022/05/19 04:10:06;;;;;;;6.50;4.13;;;22.80;70.10;;;;;;5030347;28;44356;-70
2022/05/19 04:12:35;;;;;;;5.83;3.80;;;22.90;69.40;;;;;;5049172;28;44092;-70
2022/05/19 04:15:03;;;;;;;8.77;4.50;;;22.90;69.80;;;;;;5048459;28;44826;-72
2022/05/19 04:17:33;;;;;;;5.43;3.80;;;22.80;68.60;;;;;;5048536;28;43997;-71
2022/05/19 04:20:01;;;;;;;9.57;4.93;;;22.70;69.10;;;;;;5048631;28;44048;-70
2022/05/19 04:22:29;;;;;;;7.93;4.70;;;22.60;68.70;;;;;;5049008;28;43974;-70
2022/05/19 04:25:00;;;;;;;11.83;5.83;;;22.60;68.60;;;;;;5048160;28;43903;-70
2022/05/19 04:27:28;;;;;;;13.53;5.63;;;22.50;68.60;;;;;;5048206;28;43957;-71
2022/05/19 04:29:57;;;;;;;10.13;5.37;;;22.50;68.80;;;;;;5048382;28;43365;-72
2022/05/19 04:32:32;;;;;;;10.07;5.33;;;22.40;71.40;;;;;;5048656;28;43902;-70
2022/05/19 04:35:01;;;;;;;11.83;5.63;;;22.50;71.50;;;;;;5047647;28;43778;-70
2022/05/19 04:37:29;;;;;;;9.47;5.57;;;22.70;70.80;;;;;;5048087;28;43954;-70
2022/05/19 04:39:56;;;;;;;11.80;5.57;;;22.90;70.10;;;;;;5048159;28;44237;-70
2022/05/19 04:42:24;;;;;;;12.33;5.63;;;23.00;69.50;;;;;;5046862;28;43504;-71
2022/05/19 04:44:54;;;;;;;12.10;6.17;;;23.00;68.80;;;;;;5029120;28;44154;-71
2022/05/19 04:47:23;;;;;;;11.90;6.03;;;23.00;68.40;;;;;;5029488;28;43937;-70
2022/05/19 04:49:51;;;;;;;12.07;6.10;;;22.90;68.30;;;;;;5046121;28;43427;-70
2022/05/19 04:52:20;;;;;;;11.30;5.90;;;22.80;68.70;;;;;;5048377;28;44128;-72
2022/05/19 04:54:48;;;;;;;10.53;6.57;;;22.70;68.70;;;;;;5047890;28;43953;-70
2022/05/19 04:57:16;;;;;;;9.50;5.60;;;22.70;68.30;;;;;;5048174;28;44141;-70
2022/05/19 04:59:44;;;;;;;11.57;6.03;;;22.60;70.50;;;;;;5047944;28;43368;-71
2022/05/19 05:02:12;;;;;;;11.37;6.37;;;22.60;71.40;;;;;;5030088;28;44001;-70
2022/05/19 05:04:41;;;;;;;10.93;6.20;;;22.70;70.60;;;;;;5047896;28;43915;-71
2022/05/19 05:07:09;;;;;;;9.70;6.47;;;22.90;70.40;;;;;;5047593;28;43374;-71
2022/05/19 05:09:40;;;;;;;13.50;6.67;;;23.00;69.50;;;;;;5029580;28;44074;-70
2022/05/19 05:12:09;;;;;;;11.43;5.83;;;23.10;68.70;;;;;;5047806;28;43884;-70
2022/05/19 05:14:37;;;;;;;11.77;6.23;;;23.00;68.50;;;;;;5047539;28;44972;-71
2022/05/19 05:17:05;;;;;;;11.33;6.70;;;23.00;68.50;;;;;;5047174;28;44128;-71
2022/05/19 05:19:33;;;;;;;8.73;6.10;;;22.90;68.40;;;;;;5029508;28;44009;-71
2022/05/19 05:22:02;;;;;;;12.00;6.43;;;22.80;68.90;;;;;;5048179;28;43476;-71
2022/05/19 05:24:30;;;;;;;7.80;5.93;;;22.70;68.30;;;;;;5047490;28;43754;-71
2022/05/19 05:26:58;;;;;;;10.83;6.03;;;22.60;68.50;;;;;;5047230;28;43957;-70
2022/05/19 05:29:26;;;;;;;9.67;6.47;;;22.60;71.20;;;;;;5047582;28;43959;-71
2022/05/19 05:31:54;;;;;;;10.60;6.33;;;22.60;71.20;;;;;;5047714;28;44061;-71
2022/05/19 05:34:22;;;;;;;9.87;6.43;;;22.80;70.70;;;;;;5028586;28;45796;-70
2022/05/19 05:36:50;;;;;;;9.00;6.03;;;22.80;69.90;;;;;;5047187;28;43899;-70
2022/05/19 05:39:19;;;;;;;8.77;5.93;;;22.80;69.50;;;;;;5029386;28;43968;-70
2022/05/19 05:41:47;;;;;;;7.53;5.73;;;22.70;69.00;;;;;;5047543;28;43974;-70
2022/05/19 05:44:15;;;;;;;9.80;6.17;;;22.70;69.20;;;;;;5047350;28;44058;-71
2022/05/19 05:46:44;;;;;;;8.80;6.27;;;22.60;68.70;;;;;;5047221;28;43612;-69
2022/05/19 05:49:14;;;;;;;8.40;5.83;;;22.60;68.70;;;;;;5047391;28;44453;-70
2022/05/19 05:51:42;;;;;;;7.50;5.93;;;22.50;68.70;;;;;;5047707;28;43970;-70
2022/05/19 05:54:10;;;;;;;6.43;5.70;;;22.40;68.80;;;;;;5040364;28;43930;-70
2022/05/19 05:56:39;;;;;;;6.17;5.57;;;22.40;70.80;;;;;;5039355;28;43901;-70
2022/05/19 05:59:07;;;;;;;8.73;6.27;;;22.40;71.60;;;;;;5040131;28;44094;-71
2022/05/19 06:01:35;;;;;;;7.97;6.10;;;22.60;71.20;;;;;;5040834;28;44061;-70
2022/05/19 06:04:06;;;;;;;6.73;5.83;;;22.80;70.50;;;;;;5036314;28;46041;-70
2022/05/19 06:06:36;;;;;;;7.07;6.07;;;22.90;69.40;;;;;;5046797;28;43470;-71
2022/05/19 06:09:04;;;;;;;6.77;5.57;;;23.10;69.00;;;;;;5046996;28;43917;-70
2022/05/19 06:11:32;;;;;;;7.67;6.10;;;23.10;68.70;;;;;;5047128;28;44194;-71
2022/05/19 06:14:01;;;;;;;6.03;5.43;;;23.00;68.30;;;;;;5046813;28;43918;-71
2022/05/19 06:16:29;;;;;;;7.80;5.20;;;22.90;68.30;;;;;;5028256;28;45028;-70
2022/05/19 06:18:57;;;;;;;5.40;5.00;;;22.80;68.40;;;;;;5028257;28;43414;-71
2022/05/19 06:21:25;;;;;;;6.00;5.40;;;22.70;68.40;;;;;;5045399;28;43911;-71
2022/05/19 06:23:53;;;;;;;6.13;5.40;;;22.60;68.40;;;;;;5046671;28;43912;-70
2022/05/19 06:26:21;;;;;;;6.60;5.57;;;22.60;70.90;;;;;;5046580;28;43410;-70
2022/05/19 06:28:49;;;;;;;7.30;5.73;;;22.60;70.90;;;;;;5028318;28;44052;-70
2022/05/19 06:31:18;;;;;;;6.33;5.50;;;22.80;70.40;;;;;;5047013;28;43417;-70
2022/05/19 06:33:46;;;;;;;6.67;5.13;;;22.80;69.60;;;;;;5043991;28;47290;-71
2022/05/19 06:36:15;;;;;;;5.83;5.30;;;22.80;69.20;;;;;;5046376;28;44040;-71
2022/05/19 06:38:44;;;;;;;5.77;5.27;;;22.80;68.90;;;;;;5028324;28;43949;-70
2022/05/19 06:43:57;;;;;;;5.40;5.00;;;22.60;68.60;;;;;;5046295;28;43954;-70
2022/05/19 06:46:26;;;;;;;5.77;5.27;;;22.50;68.70;;;;;;5044607;28;45125;-70
2022/05/19 06:48:54;;;;;;;5.23;4.80;;;22.50;68.80;;;;;;5027986;28;44038;-70
2022/05/19 06:51:22;;;;;;;5.60;5.00;;;22.40;68.90;;;;;;5046662;28;43914;-71
2022/05/19 06:53:51;;;;;;;5.77;5.20;;;22.40;69.90;;;;;;5046355;28;43933;-70
2022/05/19 06:56:19;;;;;;;5.10;4.70;;;22.40;71.50;;;;;;5045987;28;44049;-71
2022/05/19 06:58:47;;;;;;;5.13;4.83;;;22.50;71.30;;;;;;5046201;28;43932;-69
2022/05/19 07:01:14;;;;;;;5.13;4.80;;;22.70;70.50;;;;;;5046792;28;43383;-70
2022/05/19 07:03:44;;;;;;;5.60;5.10;;;22.90;69.90;;;;;;5045760;28;44787;-71
2022/05/19 07:06:12;;;;;;;5.50;5.10;;;23.00;69.20;;;;;;5046286;28;43949;-70
2022/05/19 07:08:40;;;;;;;5.77;5.27;;;23.00;68.70;;;;;;5044963;28;43902;-70
2022/05/19 07:11:24;;;;;;;5.17;4.77;;;23.00;68.60;;;;;;5050024;28;44012;-70
2022/05/19 07:13:57;;;;;;;5.50;5.10;;;22.90;68.30;;;;;;5041658;28;44956;-71
2022/05/19 07:16:25;;;;;;;5.03;4.63;;;22.80;68.50;;;;;;5049359;28;43479;-70
2022/05/19 07:20:43;;;;;;;5.03;4.63;;;22.70;68.20;;;;;;5031056;28;43366;-70
2022/05/19 07:21:45;;;;;;;4.77;4.47;;;22.70;68.70;;;;;;5049845;28;43950;-70
2022/05/19 07:24:15;;;;;;;5.13;4.73;;;22.60;70.90;;;;;;5049442;28;43666;-70
2022/05/19 07:26:44;;;;;;;4.93;4.60;;;22.70;70.80;;;;;;5049567;28;43941;-69
2022/05/19 07:29:12;;;;;;;5.40;5.00;;;22.70;70.50;;;;;;5049620;28;43989;-71
2022/05/19 07:31:40;;;;;;;4.70;4.30;;;22.80;69.70;;;;;;5049485;28;44215;-71
2022/05/19 07:34:10;;;;;;;5.33;4.83;;;22.80;69.30;;;;;;5049259;28;44007;-70
2022/05/19 07:36:38;;;;;;;4.67;4.43;;;22.70;69.40;;;;;;5048886;28;44097;-70
2022/05/19 07:39:06;;;;;;;5.47;5.07;;;22.60;68.60;;;;;;5047547;28;44008;-71
2022/05/19 07:41:34;;;;;;;5.03;4.63;;;22.60;68.60;;;;;;5031012;28;43994;-71
2022/05/19 07:44:03;;;;;;;5.20;4.87;;;22.50;68.70;;;;;;5030776;28;46388;-71
2022/05/19 07:46:31;;;;;;;4.53;4.33;;;22.50;68.90;;;;;;5048669;28;43387;-70
2022/05/19 07:48:59;;;;;;;4.27;4.00;;;22.40;68.90;;;;;;5048613;28;44055;-70
2022/05/19 07:51:31;;;;;;;4.70;4.40;;;22.40;70.70;;;;;;5049255;28;43981;-70
2022/05/19 07:53:59;;;;;;;4.43;4.23;;;22.40;71.60;;;;;;5048819;28;44120;-70
2022/05/19 07:56:27;;;;;;;4.60;4.30;;;22.60;71.20;;;;;;5048865;28;44093;-70
2022/05/19 07:58:55;;;;;;;4.70;4.40;;;22.80;70.30;;;;;;5049016;28;43827;-70
2022/05/19 08:01:25;;;;;;;4.27;4.07;;;22.90;69.70;;;;;;5049142;28;44130;-70
2022/05/19 08:03:53;;;;;;;5.00;4.60;;;23.00;69.10;;;;;;5048666;28;43696;-70
2022/05/19 08:06:21;;;;;;;4.23;4.03;;;23.00;69.10;;;;;;5030375;28;45444;-70
2022/05/19 08:08:51;;;;;;;4.67;4.37;;;22.90;68.80;;;;;;5030370;28;43958;-71
2022/05/19 08:11:19;;;;;;;4.57;4.27;;;22.80;69.00;;;;;;5049094;28;43457;-71
2022/05/19 08:16:32;;;;;;;4.70;4.27;;;22.60;68.40;;;;;;5043470;28;43448;-69
2022/05/19 08:19:00;;;;;;;4.50;4.13;;;22.60;69.40;;;;;;5029901;28;43957;-71
2022/05/19 08:21:28;;;;;;;5.07;4.77;;;22.50;71.00;;;;;;5047812;28;44029;-70
2022/05/19 08:23:58;;;;;;;4.13;3.93;;;22.60;71.10;;;;;;5048506;28;44968;-71
2022/05/19 08:26:26;;;;;;;4.03;3.93;;;22.70;70.30;;;;;;5030133;28;45127;-70
2022/05/19 08:28:53;;;;;;;4.23;4.03;;;22.70;70.10;;;;;;5048476;28;43983;-69
2022/05/19 08:31:22;;;;;;;3.67;3.57;;;22.70;69.40;;;;;;5048627;28;43512;-70
2022/05/19 08:33:52;;;;;;;4.00;3.80;;;22.70;69.90;;;;;;5048000;28;43943;-70
2022/05/19 08:36:24;;;;;;;4.47;4.27;;;22.60;68.70;;;;;;5029440;28;45146;-70
2022/05/19 08:38:52;;;;;;;4.10;3.90;;;22.50;68.80;;;;;;5048112;28;43992;-70
2022/05/19 08:41:25;;;;;;;4.50;4.27;;;22.50;68.90;;;;;;5048659;28;43373;-70
2022/05/19 08:43:54;;;;;;;4.00;3.80;;;22.40;69.00;;;;;;5047883;28;44084;-71
2022/05/19 08:46:24;;;;;;;3.90;3.80;;;22.40;69.40;;;;;;5045463;28;44317;-71
2022/05/19 08:48:54;;;;;;;3.97;3.80;;;22.40;71.70;;;;;;5048104;28;43996;-71
2022/05/19 08:51:24;;;;;;;3.80;3.70;;;22.50;71.70;;;;;;5048561;28;43956;-70
2022/05/19 08:53:58;;;;;;;4.07;3.87;;;22.70;71.10;;;;;;5046491;28;44582;-70
2022/05/19 08:56:36;;;;;;;3.53;3.43;;;22.80;70.00;;;;;;5048033;28;44027;-70
2022/05/19 08:59:08;;;;;;;3.63;3.53;;;23.00;69.20;;;;;;5041244;28;43887;-71
2022/05/19 09:01:40;;;;;;;3.93;3.73;;;23.00;69.40;;;;;;5042355;28;43981;-71
2022/05/19 09:04:23;;;;;;;3.70;3.60;;;22.90;68.80;;;;;;5047868;28;43975;-71
2022/05/19 09:09:50;;;;;;;3.93;3.83;;;22.80;68.70;;;;;;5047894;28;44033;-70
2022/05/19 09:12:20;;;;;;;3.60;3.50;;;22.70;68.50;;;;;;5042015;28;43396;-71
2022/05/19 09:14:48;;;;;;;3.83;3.63;;;22.60;69.60;;;;;;5047093;28;43774;-70
2022/05/19 09:17:16;;;;;;;4.07;3.87;;;22.60;71.50;;;;;;5047393;28;43945;-71
2022/05/19 09:19:46;;;;;;;4.23;4.03;;;22.60;70.90;;;;;;5045994;28;44061;-70
2022/05/19 09:22:15;;;;;;;3.50;3.40;;;22.70;70.40;;;;;;5048290;28;43869;-70
2022/05/19 09:24:45;;;;;;;3.83;3.67;;;22.80;70.00;;;;;;5047550;28;43999;-71
2022/05/19 09:27:13;;;;;;;3.63;3.53;;;22.70;69.80;;;;;;5047730;28;43449;-71
2022/05/19 09:29:44;;;;;;;3.67;3.57;;;22.70;69.40;;;;;;5046955;28;44094;-71
2022/05/19 09:32:14;;;;;;;3.33;3.23;;;22.60;68.70;;;;;;5047726;28;43889;-70
2022/05/19 09:34:44;;;;;;;3.30;3.20;;;22.50;68.80;;;;;;5045712;28;46171;-70
2022/05/19 09:37:14;;;;;;;3.47;3.37;;;22.50;69.00;;;;;;5047593;28;44059;-71
2022/05/19 09:39:47;;;;;;;3.83;3.73;;;22.40;69.10;;;;;;5047343;28;43357;-70
2022/05/19 09:42:21;;;;;;;3.47;3.37;;;22.40;69.60;;;;;;5047150;28;43416;-71
2022/05/19 09:44:56;;;;;;;3.73;3.53;;;22.40;71.80;;;;;;5047149;28;43856;-72
2022/05/19 09:47:30;;;;;;;3.50;3.40;;;22.50;71.90;;;;;;5047217;28;43897;-71
2022/05/19 09:50:03;;;;;;;3.40;3.30;;;22.70;71.10;;;;;;5047109;28;43414;-70
2022/05/19 09:52:33;;;;;;;3.40;3.30;;;22.90;70.40;;;;;;5023023;28;43350;-70
2022/05/19 09:55:03;;;;;;;3.33;3.20;;;23.00;69.80;;;;;;5047165;28;43937;-71
2022/05/19 09:57:56;;;;;;;3.80;3.70;;;23.00;69.50;;;;;;5046692;28;43921;-71
2022/05/19 10:00:34;;;;;;;3.30;3.20;;;22.90;69.50;;;;;;5028689;28;44415;-71
2022/05/19 10:03:02;;;;;;;3.40;3.30;;;22.90;69.20;;;;;;5045296;28;44159;-71
2022/05/19 10:05:40;;;;;;;3.40;3.30;;;22.80;68.60;;;;;;5033729;28;44091;-70
2022/05/19 10:08:13;;;;;;;3.53;3.43;;;22.70;68.70;;;;;;5046762;28;44058;-71
2022/05/19 10:10:48;;;;;;;3.13;3.03;;;22.60;69.00;;;;;;5028583;28;43906;-71
2022/05/19 10:13:17;;;;;;;3.50;3.30;;;22.60;71.50;;;;;;5047396;28;43890;-71
2022/05/19 10:15:53;;;;;;;2.93;2.83;;;22.60;70.90;;;;;;5046958;28;44110;-70
2022/05/19 10:18:42;;;;;;;3.30;3.20;;;22.70;70.60;;;;;;5028475;28;45047;-70
2022/05/19 10:21:16;;;;;;;3.23;3.13;;;22.70;70.60;;;;;;5014667;28;43361;-70
2022/05/19 10:23:54;;;;;;;3.30;3.20;;;22.70;70.40;;;;;;5047053;28;43864;-71
2022/05/19 10:26:35;;;;;;;3.30;3.20;;;22.70;69.20;;;;;;5046538;28;44006;-70
2022/05/19 10:32:26;;;;;;;3.20;3.10;;;22.50;69.30;;;;;;5046376;28;43966;-70
2022/05/19 10:34:58;;;;;;;3.23;3.13;;;22.50;69.40;;;;;;5046948;28;43882;-71
2022/05/19 10:37:34;;;;;;;3.30;3.20;;;22.40;69.50;;;;;;5028059;28;45413;-71
2022/05/19 10:40:18;;;;;;;3.33;3.23;;;22.40;71.80;;;;;;5046527;28;43779;-70
2022/05/19 10:42:50;;;;;;;3.00;2.90;;;22.50;71.90;;;;;;5041450;28;43349;-71
2022/05/19 10:45:22;;;;;;;3.20;3.10;;;22.60;71.30;;;;;;5050110;28;43970;-70
2022/05/19 10:48:17;;;;;;;2.80;2.80;;;22.80;70.70;;;;;;5049654;28;43933;-70
2022/05/19 10:50:46;;;;;;;3.10;3.00;;;22.90;69.90;;;;;;5050018;28;43991;-71
2022/05/19 10:53:30;;;;;;;3.07;2.97;;;23.00;69.50;;;;;;5049895;28;43973;-70
2022/05/19 10:56:08;;;;;;;2.80;2.80;;;22.90;69.70;;;;;;5045596;28;44063;-71
2022/05/19 10:58:45;;;;;;;3.13;3.03;;;22.90;69.40;;;;;;5049316;28;43997;-70
2022/05/19 11:01:26;;;;;;;3.03;2.93;;;22.80;68.90;;;;;;5048354;28;44595;-71
2022/05/19 11:04:08;;;;;;;3.07;3.00;;;22.60;68.90;;;;;;5049467;28;44003;-72
2022/05/19 11:06:49;;;;;;;3.13;3.03;;;22.60;69.30;;;;;;5049978;28;43349;-71
2022/05/19 11:09:22;;;;;;;2.60;2.60;;;22.50;71.60;;;;;;5031262;28;43903;-70
2022/05/19 11:11:57;;;;;;;2.80;2.80;;;22.60;71.10;;;;;;5031361;28;44073;-71
2022/05/19 11:14:38;;;;;;;2.97;2.87;;;22.70;70.80;;;;;;5049434;28;44034;-71
2022/05/19 11:17:10;;;;;;;3.17;3.07;;;22.80;70.70;;;;;;5043475;28;43960;-70
2022/05/19 11:19:43;;;;;;;2.87;2.87;;;22.70;70.10;;;;;;5049268;28;44346;-70
2022/05/19 11:22:14;;;;;;;2.87;2.87;;;22.70;69.50;;;;;;5049469;28;43989;-71
2022/05/19 11:27:30;;;;;;;2.70;2.67;;;22.60;69.40;;;;;;5049156;28;43879;-71
2022/05/19 11:30:01;;;;;;;2.40;2.40;;;22.50;69.60;;;;;;5047308;28;45847;-71
2022/05/19 11:32:31;;;;;;;2.80;2.70;;;22.40;69.60;;;;;;5048624;28;44001;-71
2022/05/19 11:35:05;;;;;;;2.93;2.83;;;22.40;71.60;;;;;;5030835;28;43922;-71
2022/05/19 11:37:39;;;;;;;2.60;2.60;;;22.50;72.10;;;;;;5049831;28;43472;-71
2022/05/19 11:40:15;;;;;;;2.30;2.30;;;22.60;71.20;;;;;;5043590;28;44903;-71
2022/05/19 11:42:45;;;;;;;2.90;2.80;;;22.80;70.80;;;;;;5049021;28;44035;-70
2022/05/19 11:45:16;;;;;;;2.70;2.70;;;23.00;70.10;;;;;;5049463;28;43915;-70
2022/05/19 11:56:15;;;;;;;2.77;2.67;;;22.80;69.00;;;;;;5033578;28;43935;-71
2022/05/19 11:58:42;;;;;;;2.53;2.53;;;22.70;69.00;;;;;;5049323;28;43467;-72
2022/05/19 12:01:15;;;;;;;2.53;2.53;;;22.60;69.20;;;;;;5048725;28;44584;-72
2022/05/19 12:03:45;;;;;;;2.47;2.47;;;22.60;71.50;;;;;;5030344;28;45155;-72
2022/05/19 12:06:19;;;;;;;2.60;2.60;;;22.60;71.50;;;;;;5049086;28;44068;-71
2022/05/19 12:08:54;;;;;;;2.97;2.87;;;22.70;71.00;;;;;;5049184;28;44057;-71
2022/05/19 12:11:24;;;;;;;2.90;2.80;;;22.80;70.80;;;;;;5048618;28;43983;-72
2022/05/19 12:13:53;;;;;;;2.60;2.60;;;22.80;70.80;;;;;;5042392;28;44036;-71
2022/05/19 12:16:39;;;;;;;2.60;2.60;;;22.70;69.90;;;;;;5048850;28;43991;-71
2022/05/19 12:19:08;;;;;;;2.73;2.67;;;22.60;69.20;;;;;;5047465;28;43971;-70
2022/05/19 12:21:43;;;;;;;2.50;2.40;;;22.60;69.30;;;;;;5048532;28;43783;-71
2022/05/19 12:24:17;;;;;;;2.30;2.30;;;22.60;69.50;;;;;;5048196;28;43413;-70
2022/05/19 12:26:52;;;;;;;2.83;2.73;;;22.50;69.60;;;;;;5030257;28;44035;-72
2022/05/19 12:29:29;;;;;;;2.57;2.57;;;22.50;69.70;;;;;;5047303;28;44042;-71
2022/05/19 12:31:57;;;;;;;2.60;2.60;;;22.40;72.00;;;;;;5048159;28;43961;-70
2022/05/19 12:34:31;;;;;;;2.27;2.27;;;22.50;71.90;;;;;;5047986;28;43596;-70
2022/05/19 12:37:30;;;;;;;2.60;2.50;;;22.70;71.40;;;;;;5048399;28;43875;-71
2022/05/19 12:40:27;;;;;;;2.50;2.40;;;22.90;71.60;;;;;;5048608;28;43377;-70
2022/05/19 12:43:15;;;;;;;2.33;2.33;;;23.00;70.10;;;;;;5041033;28;43948;-70
2022/05/19 12:45:44;;;;;;;2.23;2.23;;;23.00;69.80;;;;;;5033840;28;43960;-70
2022/05/19 12:48:44;;;;;;;2.30;2.30;;;22.90;69.90;;;;;;5029526;28;43939;-71
2022/05/19 12:51:18;;;;;;;2.60;2.60;;;22.80;69.00;;;;;;5041724;28;44017;-71
2022/05/19 12:54:02;;;;;;;2.30;2.30;;;22.70;69.00;;;;;;5036943;28;43942;-72
2022/05/19 12:56:59;;;;;;;2.70;2.70;;;22.70;69.20;;;;;;5026328;28;45013;-71
2022/05/19 12:59:52;;;;;;;2.50;2.50;;;22.60;71.10;;;;;;5007517;28;43905;-70
2022/05/19 13:02:31;;;;;;;2.40;2.40;;;22.60;71.70;;;;;;5041774;28;43953;-70
2022/05/19 13:05:02;;;;;;;2.27;2.23;;;22.70;71.00;;;;;;5027233;28;47205;-71
2022/05/19 13:07:35;;;;;;;2.27;2.27;;;22.80;70.80;;;;;;5028463;28;43933;-70
2022/05/19 13:10:07;;;;;;;2.30;2.30;;;22.80;70.90;;;;;;5027578;28;44005;-70
2022/05/19 13:12:44;;;;;;;2.80;2.70;;;22.70;69.60;;;;;;5028013;28;43907;-71
2022/05/19 13:15:13;;;;;;;2.40;2.30;;;22.70;69.40;;;;;;5027628;28;45016;-70
2022/05/19 13:17:42;;;;;;;2.60;2.40;;;22.60;69.40;;;;;;5027542;28;44051;-71
2022/05/19 13:20:14;;;;;;;2.40;2.40;;;22.60;69.60;;;;;;5027253;28;43832;-71
2022/05/19 13:23:05;;;;;;;2.47;2.47;;;22.50;69.70;;;;;;5031630;28;44061;-70
2022/05/19 13:25:36;;;;;;;2.30;2.30;;;22.50;69.80;;;;;;5046946;28;43751;-71
2022/05/19 13:30:51;;;;;;;2.00;2.00;;;22.50;71.90;;;;;;5035725;28;43904;-70